createdAt,value
2019-04-06T10:05:03.381Z,27
2019-04-06T10:10:03.374Z,26
2019-04-06T10:15:03.374Z,26
2019-04-06T10:20:03.394Z,24
2019-04-06T10:25:03.386Z,24
2019-04-06T10:30:03.360Z,24
2019-04-06T10:35:03.379Z,25
2019-04-06T10:40:03.401Z,24
2019-04-06T10:45:03.368Z,24
2019-04-06T10:50:03.637Z,24
2019-04-06T10:55:03.411Z,24
2019-04-06T11:00:03.569Z,24
2019-04-06T11:05:03.394Z,23
2019-04-06T11:10:03.375Z,25
2019-04-06T11:15:03.460Z,25
2019-04-06T11:20:03.397Z,24
2019-04-06T11:25:03.424Z,25
2019-04-06T11:30:12.724Z,25
2019-04-06T11:35:03.371Z,26
2019-04-06T11:40:03.451Z,25
2019-04-06T11:45:03.422Z,27
2019-04-06T11:50:03.714Z,27
2019-04-06T11:55:03.659Z,28
2019-04-06T12:00:03.558Z,29
2019-04-06T12:05:03.436Z,30
2019-04-06T12:10:03.578Z,31
2019-04-06T12:15:03.426Z,31
2019-04-06T12:20:03.436Z,32
2019-04-06T12:25:03.534Z,37
2019-04-06T12:30:03.443Z,42
2019-04-06T12:35:03.450Z,44
2019-04-06T12:40:03.538Z,45
2019-04-06T12:45:03.771Z,47
2019-04-06T12:50:03.809Z,48
2019-04-06T12:55:03.762Z,48
2019-04-06T13:00:03.553Z,48
2019-04-06T13:05:03.423Z,48
2019-04-06T13:10:03.711Z,48
2019-04-06T13:15:03.465Z,47
2019-04-06T13:20:03.763Z,45
2019-04-06T13:25:03.794Z,45
2019-04-06T13:30:03.432Z,45
2019-04-06T13:35:03.485Z,45
2019-04-06T13:40:03.469Z,44
2019-04-06T13:45:03.788Z,42
2019-04-06T13:50:03.488Z,41
2019-04-06T13:55:03.478Z,40
2019-04-06T14:00:03.514Z,36
2019-04-06T14:05:03.485Z,35
2019-04-06T14:10:03.487Z,36
2019-04-06T14:15:03.483Z,35
2019-04-06T14:20:03.776Z,35
2019-04-06T14:25:03.767Z,34
2019-04-06T14:30:03.457Z,35
2019-04-06T14:35:03.549Z,34
2019-04-06T14:40:03.492Z,35
2019-04-06T14:45:03.493Z,36
2019-04-06T14:50:03.526Z,36
2019-04-06T14:55:03.548Z,34
2019-04-06T15:00:03.473Z,33
2019-04-06T15:05:03.502Z,34
2019-04-06T15:10:03.502Z,32
2019-04-06T15:15:03.504Z,31
2019-04-06T15:20:03.525Z,32
2019-04-06T15:25:03.519Z,32
2019-04-06T15:30:03.482Z,32
2019-04-06T15:35:03.534Z,32
2019-04-06T15:40:03.536Z,32
2019-04-06T15:45:03.532Z,31
2019-04-06T15:50:03.494Z,31
2019-04-06T15:55:03.527Z,31
2019-04-06T16:00:03.540Z,32
2019-04-06T16:05:03.538Z,33
2019-04-06T16:10:03.542Z,33
2019-04-06T16:15:03.533Z,33
2019-04-06T16:20:03.551Z,33
2019-04-06T16:25:03.608Z,35
2019-04-06T16:30:03.697Z,36
2019-04-06T16:35:03.547Z,37
2019-04-06T16:40:03.539Z,38
2019-04-06T16:45:03.715Z,38
2019-04-06T16:50:03.727Z,38
2019-04-06T16:55:03.564Z,37
2019-04-06T17:00:11.387Z,37
2019-04-06T17:05:03.649Z,38
2019-04-06T17:10:03.573Z,38
2019-04-06T17:15:05.119Z,38
2019-04-06T17:20:03.561Z,37
2019-04-06T17:25:03.701Z,38
2019-04-06T17:30:03.567Z,38
2019-04-06T17:35:03.754Z,38
2019-04-06T17:40:03.549Z,38
2019-04-06T17:45:03.580Z,39
2019-04-06T17:50:03.542Z,40
2019-04-06T17:55:03.819Z,42
2019-04-06T18:00:04.344Z,42
2019-04-06T18:05:03.549Z,43
2019-04-06T18:10:03.599Z,43
2019-04-06T18:15:03.597Z,44
2019-04-06T18:20:03.737Z,45
2019-04-06T18:25:04.110Z,45
2019-04-06T18:30:03.597Z,46
2019-04-06T18:35:04.043Z,47
2019-04-06T18:40:03.734Z,48
2019-04-06T18:45:03.619Z,48
2019-04-06T18:50:03.604Z,48
2019-04-06T18:55:03.754Z,48
2019-04-06T19:00:03.604Z,49
2019-04-06T19:05:03.622Z,50
2019-04-06T19:10:04.116Z,51
2019-04-06T19:15:03.622Z,52
2019-04-06T19:20:03.609Z,51
2019-04-06T19:25:03.745Z,52
2019-04-06T19:30:03.621Z,54
2019-04-06T19:35:04.080Z,55
2019-04-06T19:40:03.642Z,56
2019-04-06T19:45:03.635Z,57
2019-04-06T19:50:03.638Z,59
2019-04-06T19:55:03.598Z,61
2019-04-06T20:00:03.639Z,62
2019-04-06T20:05:03.787Z,65
2019-04-06T20:10:03.648Z,67
2019-04-06T20:15:03.988Z,69
2019-04-06T20:20:03.614Z,71
2019-04-06T20:25:03.650Z,73
2019-04-06T20:30:03.658Z,76
2019-04-06T20:35:04.215Z,79
2019-04-06T20:40:03.650Z,81
2019-04-06T20:45:03.668Z,84
2019-04-06T20:50:03.734Z,87
2019-04-06T20:55:03.692Z,90
2019-04-06T21:00:04.364Z,91
2019-04-06T21:05:03.637Z,91
2019-04-06T21:10:04.169Z,91
2019-04-06T21:15:15.837Z,91
2019-04-06T21:20:03.691Z,91
2019-04-06T21:25:03.734Z,91
2019-04-06T21:30:03.648Z,91
2019-04-06T21:35:04.576Z,91
2019-04-06T21:40:03.845Z,91
2019-04-06T21:45:03.928Z,91
2019-04-06T21:50:03.749Z,91
2019-04-06T21:55:03.747Z,91
2019-04-06T22:00:04.247Z,91
2019-04-06T22:05:03.716Z,91
2019-04-06T22:10:03.761Z,91
2019-04-06T22:15:04.094Z,91
2019-04-06T22:20:04.123Z,91
2019-04-06T22:25:04.231Z,91
2019-04-06T22:30:03.711Z,91
2019-04-06T22:35:03.717Z,91
2019-04-06T22:40:03.795Z,91
2019-04-06T22:45:03.778Z,91
2019-04-06T22:50:03.827Z,91
2019-04-06T22:55:03.719Z,91
2019-04-06T23:00:03.696Z,91
2019-04-06T23:05:03.870Z,91
2019-04-06T23:10:04.250Z,91
2019-04-06T23:15:03.736Z,91
2019-04-06T23:20:03.729Z,91
2019-04-06T23:25:03.930Z,91
2019-04-06T23:30:03.738Z,90
2019-04-06T23:35:03.735Z,90
2019-04-06T23:40:04.256Z,90
2019-04-06T23:45:03.716Z,90
2019-04-06T23:50:03.750Z,90
2019-04-06T23:55:03.789Z,90
